createdAt,value
2022-08-20T00:02:21.517Z,5.47
2022-08-20T00:04:52.282Z,6.15
2022-08-20T00:07:23.713Z,5.65
2022-08-20T00:12:25.045Z,5.80
2022-08-20T00:17:39.373Z,5.25
2022-08-20T00:20:13.430Z,5.50
2022-08-20T00:22:41.654Z,5.20
2022-08-20T00:25:11.536Z,4.85
2022-08-20T00:27:42.669Z,4.35
2022-08-20T00:30:13.126Z,4.97
2022-08-20T00:32:58.909Z,4.33
2022-08-20T00:35:37.739Z,4.28
2022-08-20T00:38:09.604Z,3.65
2022-08-20T00:40:47.867Z,4.05
2022-08-20T00:43:36.488Z,3.50
2022-08-20T00:46:12.538Z,3.22
2022-08-20T00:48:45.609Z,3.67
2022-08-20T00:51:45.502Z,3.55
2022-08-20T00:54:26.786Z,3.45
2022-08-20T00:57:10.750Z,3.55
2022-08-20T00:59:46.088Z,3.60
2022-08-20T01:02:23.288Z,3.25
2022-08-20T01:04:53.607Z,3.17
2022-08-20T01:07:34.888Z,3.28
2022-08-20T01:10:31.294Z,3.72
2022-08-20T01:13:10.197Z,3.67
2022-08-20T01:15:46.384Z,3.15
2022-08-20T01:18:18.613Z,3.33
2022-08-20T01:20:59.644Z,3.65
2022-08-20T01:23:44.273Z,3.10
2022-08-20T01:26:24.017Z,3.42
2022-08-20T01:29:02.436Z,3.42
2022-08-20T01:31:37.743Z,3.50
2022-08-20T01:34:16.000Z,3.50
2022-08-20T01:36:54.015Z,3.00
2022-08-20T01:39:31.809Z,3.08
2022-08-20T01:42:33.829Z,2.92
2022-08-20T01:45:01.912Z,3.03
2022-08-20T01:47:38.674Z,2.97
2022-08-20T01:50:16.956Z,3.65
2022-08-20T01:52:59.703Z,3.00
2022-08-20T01:55:33.665Z,3.45
2022-08-20T01:58:04.928Z,2.92
2022-08-20T02:00:32.853Z,3.28
2022-08-20T02:03:07.094Z,3.40
2022-08-20T02:05:37.509Z,3.22
2022-08-20T02:08:10.322Z,3.35
2022-08-20T02:10:41.574Z,3.53
2022-08-20T02:13:11.775Z,3.53
2022-08-20T02:15:47.208Z,3.90
2022-08-20T02:18:22.790Z,3.70
2022-08-20T02:20:52.893Z,4.20
2022-08-20T02:23:22.136Z,4.05
2022-08-20T02:25:49.511Z,3.72
2022-08-20T02:28:22.174Z,3.67
2022-08-20T02:30:53.988Z,3.40
2022-08-20T02:33:29.221Z,2.67
2022-08-20T02:36:00.061Z,3.13
2022-08-20T02:38:30.791Z,3.30
2022-08-20T02:41:05.333Z,3.47
2022-08-20T02:43:37.688Z,3.30
2022-08-20T02:46:13.038Z,2.92
2022-08-20T02:48:44.257Z,3.15
2022-08-20T02:51:15.062Z,2.70
2022-08-20T02:53:45.998Z,2.88
2022-08-20T02:56:16.937Z,2.47
2022-08-20T02:58:45.223Z,2.50
2022-08-20T03:01:18.237Z,2.33
2022-08-20T03:03:49.509Z,2.20
2022-08-20T03:06:22.290Z,2.08
2022-08-20T03:08:54.051Z,2.30
2022-08-20T03:11:21.337Z,2.10
2022-08-20T03:13:53.661Z,2.88
2022-08-20T03:16:27.404Z,2.20
2022-08-20T03:19:00.686Z,1.90
2022-08-20T03:21:35.440Z,2.67
2022-08-20T03:24:06.884Z,1.80
2022-08-20T03:29:19.179Z,2.50
2022-08-20T03:31:46.494Z,2.30
2022-08-20T03:34:19.144Z,3.00
2022-08-20T03:36:49.021Z,2.38
2022-08-20T03:39:21.999Z,3.10
2022-08-20T03:41:55.544Z,2.85
2022-08-20T03:44:31.374Z,2.42
2022-08-20T03:47:07.778Z,2.55
2022-08-20T03:49:38.593Z,2.70
2022-08-20T03:52:07.141Z,2.58
2022-08-20T03:54:34.593Z,3.20
2022-08-20T03:57:13.456Z,3.63
2022-08-20T03:59:41.577Z,3.42
2022-08-20T04:02:09.182Z,3.88
2022-08-20T04:04:40.999Z,3.80
2022-08-20T04:07:25.705Z,3.80
2022-08-20T04:09:58.210Z,4.38
2022-08-20T04:12:26.021Z,4.10
2022-08-20T04:15:02.021Z,4.22
2022-08-20T04:17:29.783Z,4.32
2022-08-20T04:20:02.552Z,4.10
2022-08-20T04:22:33.150Z,3.72
2022-08-20T04:25:09.530Z,5.17
2022-08-20T04:27:41.371Z,4.15
2022-08-20T04:30:14.674Z,4.10
2022-08-20T04:32:46.160Z,4.03
2022-08-20T04:37:50.383Z,3.78
2022-08-20T04:40:38.137Z,3.78
2022-08-20T04:43:06.078Z,3.58
2022-08-20T04:45:37.997Z,3.22
2022-08-20T04:48:10.533Z,3.05
2022-08-20T04:50:43.159Z,3.70
2022-08-20T04:55:48.061Z,3.03
2022-08-20T04:58:27.531Z,2.80
2022-08-20T05:01:19.025Z,3.10
2022-08-20T05:03:51.430Z,2.75
2022-08-20T05:06:18.978Z,2.70
2022-08-20T05:08:51.132Z,2.53
2022-08-20T05:11:34.342Z,2.30
2022-08-20T05:14:14.311Z,2.50
2022-08-20T05:16:42.831Z,2.10
2022-08-20T05:19:12.381Z,2.10
2022-08-20T05:21:41.235Z,2.47
2022-08-20T05:24:10.410Z,2.10
2022-08-20T05:26:37.750Z,1.98
2022-08-20T05:29:08.971Z,2.08
2022-08-20T05:31:39.869Z,1.90
2022-08-20T05:34:12.872Z,1.60
2022-08-20T05:36:42.852Z,1.63
2022-08-20T05:39:18.422Z,2.20
2022-08-20T05:41:51.129Z,1.90
2022-08-20T05:44:19.951Z,1.83
2022-08-20T05:46:51.379Z,1.73
2022-08-20T05:51:54.924Z,1.52
2022-08-20T05:54:24.522Z,1.80
2022-08-20T05:56:54.127Z,1.67
2022-08-20T05:59:25.656Z,2.00
2022-08-20T06:01:53.397Z,1.67
2022-08-20T06:04:28.184Z,1.77
2022-08-20T06:07:04.631Z,1.50
2022-08-20T06:09:32.896Z,1.60
2022-08-20T06:12:06.738Z,1.63
2022-08-20T06:14:37.648Z,1.60
2022-08-20T06:17:15.518Z,1.73
2022-08-20T06:19:48.317Z,1.55
2022-08-20T06:22:24.265Z,1.73
2022-08-20T06:25:07.582Z,1.40
2022-08-20T06:27:38.271Z,1.30
2022-08-20T06:30:11.919Z,1.55
2022-08-20T06:32:40.284Z,1.77
2022-08-20T06:35:10.850Z,1.70
2022-08-20T06:37:41.971Z,1.17
2022-08-20T06:40:18.413Z,1.40
2022-08-20T06:42:51.911Z,1.50
2022-08-20T06:45:28.203Z,1.58
2022-08-20T06:48:01.573Z,1.25
2022-08-20T06:50:32.726Z,1.30
2022-08-20T06:53:00.813Z,1.20
2022-08-20T06:55:28.296Z,1.52
2022-08-20T06:58:01.626Z,1.30
2022-08-20T07:00:33.901Z,1.40
2022-08-20T07:03:05.152Z,1.90
2022-08-20T07:05:35.345Z,1.73
2022-08-20T07:08:08.837Z,1.83
2022-08-20T07:10:40.127Z,1.35
2022-08-20T07:13:12.361Z,1.63
2022-08-20T07:15:44.561Z,1.75
2022-08-20T07:18:17.247Z,1.02
2022-08-20T07:21:04.130Z,1.38
2022-08-20T07:23:31.885Z,1.77
2022-08-20T07:25:59.791Z,1.58
2022-08-20T07:28:32.723Z,1.35
2022-08-20T07:31:20.399Z,1.08
2022-08-20T07:33:50.354Z,1.23
2022-08-20T07:36:18.385Z,1.30
2022-08-20T07:38:57.782Z,1.40
2022-08-20T07:41:25.633Z,1.27
2022-08-20T07:43:52.950Z,1.58
2022-08-20T07:46:21.853Z,1.38
2022-08-20T07:48:51.456Z,1.33
2022-08-20T07:51:24.530Z,1.35
2022-08-20T07:53:52.141Z,1.40
2022-08-20T07:56:22.974Z,1.33
2022-08-20T07:58:55.795Z,1.20
2022-08-20T08:03:59.627Z,2.00
2022-08-20T08:06:32.360Z,1.20
2022-08-20T08:09:09.332Z,1.05
2022-08-20T08:11:47.481Z,1.20
2022-08-20T08:14:27.715Z,1.40
2022-08-20T08:17:03.896Z,1.23
2022-08-20T08:19:39.078Z,0.93
2022-08-20T08:22:19.946Z,1.20
2022-08-20T08:24:57.204Z,1.02
2022-08-20T08:27:36.399Z,1.30
2022-08-20T08:30:09.206Z,1.15
2022-08-20T08:32:37.913Z,1.38
2022-08-20T08:35:11.816Z,1.00
2022-08-20T08:37:44.157Z,1.33
2022-08-20T08:40:14.876Z,1.25
2022-08-20T08:42:48.863Z,0.77
2022-08-20T08:45:19.271Z,1.30
2022-08-20T08:47:50.552Z,1.10
2022-08-20T08:50:53.385Z,0.85
2022-08-20T08:53:30.584Z,1.35
2022-08-20T08:56:02.757Z,1.23
2022-08-20T08:58:34.202Z,1.10
2022-08-20T09:01:55.393Z,1.20
2022-08-20T09:04:10.299Z,1.05
2022-08-20T09:06:48.408Z,1.30
2022-08-20T09:09:41.939Z,1.42
2022-08-20T09:12:19.534Z,1.27
2022-08-20T09:14:54.419Z,1.27
2022-08-20T09:17:29.504Z,0.80
2022-08-20T09:20:03.740Z,1.13
2022-08-20T09:22:38.984Z,1.10
2022-08-20T09:25:08.478Z,1.20
2022-08-20T09:27:37.734Z,0.85
2022-08-20T09:30:14.355Z,1.02
2022-08-20T09:32:47.813Z,1.05
2022-08-20T09:35:16.028Z,1.30
2022-08-20T09:37:44.172Z,0.98
2022-08-20T09:40:14.800Z,1.20
2022-08-20T09:42:56.414Z,1.52
2022-08-20T09:45:29.493Z,1.20
2022-08-20T09:48:01.819Z,1.60
2022-08-20T09:50:32.045Z,1.25
2022-08-20T09:53:04.388Z,1.05
2022-08-20T09:55:41.748Z,1.00
2022-08-20T09:58:25.136Z,1.23
2022-08-20T10:00:57.810Z,2.58
2022-08-20T10:03:33.709Z,1.45
2022-08-20T10:06:14.937Z,4.68
2022-08-20T10:08:44.186Z,1.05
2022-08-20T10:11:18.782Z,0.85
2022-08-20T10:13:49.563Z,0.90
2022-08-20T10:16:20.489Z,0.95
2022-08-20T10:18:55.580Z,1.30
2022-08-20T10:21:27.307Z,0.85
2022-08-20T10:23:54.778Z,0.82
2022-08-20T10:26:23.737Z,0.80
2022-08-20T10:29:01.142Z,0.93
2022-08-20T10:31:31.206Z,0.77
2022-08-20T10:34:03.946Z,1.02
2022-08-20T10:36:35.311Z,0.80
2022-08-20T10:41:39.482Z,0.93
2022-08-20T10:44:07.814Z,1.10
2022-08-20T10:46:35.751Z,0.80
2022-08-20T10:49:05.060Z,0.82
2022-08-20T10:51:35.831Z,1.02
2022-08-20T10:54:12.269Z,1.02
2022-08-20T10:56:43.996Z,0.70
2022-08-20T10:59:14.720Z,1.25
2022-08-20T11:01:42.215Z,1.10
2022-08-20T11:04:10.813Z,1.60
2022-08-20T11:06:38.305Z,1.25
2022-08-20T11:09:09.673Z,0.95
2022-08-20T11:11:37.387Z,0.95
2022-08-20T11:14:06.830Z,1.30
2022-08-20T11:16:34.092Z,1.20
2022-08-20T11:19:05.131Z,1.40
2022-08-20T11:21:36.202Z,0.95
2022-08-20T11:24:04.072Z,1.10
2022-08-20T11:26:32.455Z,1.00
2022-08-20T11:29:00.060Z,1.20
2022-08-20T11:31:30.423Z,0.80
2022-08-20T11:34:04.148Z,0.95
2022-08-20T11:36:37.467Z,1.15
2022-08-20T11:39:08.362Z,0.82
2022-08-20T11:41:38.736Z,1.05
2022-08-20T11:44:20.208Z,0.90
2022-08-20T11:46:47.914Z,1.00
2022-08-20T11:49:18.559Z,0.85
2022-08-20T11:51:49.838Z,1.02
2022-08-20T11:54:18.253Z,0.75
2022-08-20T11:56:51.679Z,0.88
2022-08-20T11:59:22.142Z,0.68
2022-08-20T12:02:02.223Z,1.30
2022-08-20T12:04:35.330Z,1.17
2022-08-20T12:07:13.425Z,0.88
2022-08-20T12:09:50.940Z,1.10
2022-08-20T12:12:20.914Z,0.90
2022-08-20T12:14:56.933Z,0.93
2022-08-20T12:17:30.226Z,0.80
2022-08-20T12:19:59.248Z,0.90
2022-08-20T12:22:30.419Z,0.63
2022-08-20T12:25:01.235Z,0.75
2022-08-20T12:27:33.959Z,0.93
2022-08-20T12:30:03.945Z,0.88
2022-08-20T12:32:40.725Z,0.90
2022-08-20T12:35:14.052Z,0.90
2022-08-20T12:37:42.084Z,1.05
2022-08-20T12:40:14.104Z,1.42
2022-08-20T12:42:41.887Z,0.65
2022-08-20T12:45:13.168Z,1.23
2022-08-20T12:47:50.587Z,1.02
2022-08-20T12:50:30.894Z,0.70
2022-08-20T12:53:10.698Z,0.85
2022-08-20T12:55:44.564Z,1.13
2022-08-20T12:58:12.769Z,0.88
2022-08-20T13:00:50.474Z,1.00
2022-08-20T13:03:25.836Z,0.88
2022-08-20T13:05:53.971Z,1.10
2022-08-20T13:08:25.166Z,0.95
2022-08-20T13:10:52.398Z,0.90
2022-08-20T13:13:21.212Z,1.60
2022-08-20T13:15:50.791Z,1.02
2022-08-20T13:18:21.905Z,1.10
2022-08-20T13:20:50.368Z,0.75
2022-08-20T13:23:21.178Z,0.88
2022-08-20T13:25:52.372Z,0.98
2022-08-20T13:28:24.888Z,0.95
2022-08-20T13:30:53.367Z,1.20
2022-08-20T13:33:20.692Z,1.23
2022-08-20T13:35:48.198Z,1.17
2022-08-20T13:38:19.827Z,1.40
2022-08-20T13:40:49.237Z,0.85
2022-08-20T13:43:21.038Z,0.88
2022-08-20T13:45:49.267Z,0.93
2022-08-20T13:48:16.862Z,0.32
2022-08-20T13:50:46.998Z,0.82
2022-08-20T13:53:15.189Z,1.25
2022-08-20T13:55:47.440Z,1.08
2022-08-20T13:58:22.646Z,0.88
2022-08-20T14:00:50.938Z,0.80
2022-08-20T14:03:25.937Z,0.77
2022-08-20T14:06:00.432Z,1.25
2022-08-20T14:08:31.124Z,1.38
2022-08-20T14:11:03.091Z,1.30
2022-08-20T14:13:57.323Z,0.80
2022-08-20T14:16:35.604Z,1.10
2022-08-20T14:19:04.824Z,0.90
2022-08-20T14:21:36.717Z,1.10
2022-08-20T14:24:04.631Z,0.90
2022-08-20T14:26:33.304Z,0.80
2022-08-20T14:29:00.923Z,0.98
2022-08-20T14:31:28.921Z,1.90
2022-08-20T14:33:57.672Z,0.93
2022-08-20T14:36:28.872Z,0.82
2022-08-20T14:38:58.431Z,1.10
2022-08-20T14:41:33.420Z,1.15
2022-08-20T14:44:12.596Z,0.82
2022-08-20T14:46:44.280Z,1.00
2022-08-20T14:49:18.338Z,0.82
2022-08-20T14:51:50.560Z,1.05
2022-08-20T14:54:21.796Z,1.00
2022-08-20T14:56:49.284Z,1.00
2022-08-20T14:59:20.487Z,0.80
2022-08-20T15:01:49.036Z,0.82
2022-08-20T15:04:20.291Z,0.60
2022-08-20T15:06:48.456Z,1.02
2022-08-20T15:09:17.720Z,0.88
2022-08-20T15:11:49.229Z,0.98
2022-08-20T15:14:20.819Z,0.80
2022-08-20T15:16:50.513Z,0.93
2022-08-20T15:19:18.094Z,0.60
2022-08-20T15:21:49.289Z,0.75
2022-08-20T15:24:19.082Z,0.73
2022-08-20T15:26:47.077Z,0.95
2022-08-20T15:29:22.711Z,0.80
2022-08-20T15:31:54.472Z,0.85
2022-08-20T15:34:22.942Z,1.17
2022-08-20T15:36:54.258Z,1.40
2022-08-20T15:39:22.142Z,1.05
2022-08-20T15:41:49.760Z,0.90
2022-08-20T15:44:17.448Z,0.80
2022-08-20T15:46:48.457Z,0.77
2022-08-20T15:49:19.573Z,1.05
2022-08-20T15:51:50.130Z,1.25
2022-08-20T15:54:26.256Z,1.15
2022-08-20T15:57:18.626Z,1.30
2022-08-20T16:00:12.272Z,1.10
2022-08-20T16:02:41.584Z,0.63
2022-08-20T16:05:42.807Z,1.30
2022-08-20T16:08:44.272Z,1.00
2022-08-20T16:11:30.161Z,1.08
2022-08-20T16:14:02.754Z,0.88
2022-08-20T16:16:49.597Z,0.80
2022-08-20T16:19:26.103Z,1.20
2022-08-20T16:21:57.014Z,1.00
2022-08-20T16:24:26.261Z,0.80
2022-08-20T16:27:10.517Z,1.15
2022-08-20T16:29:53.955Z,1.02
2022-08-20T16:32:38.970Z,1.40
2022-08-20T16:35:33.976Z,1.23
2022-08-20T16:38:20.923Z,1.23
2022-08-20T16:40:58.798Z,0.80
2022-08-20T16:43:48.190Z,1.50
2022-08-20T16:46:26.309Z,1.42
2022-08-20T16:49:01.130Z,1.05
2022-08-20T16:51:46.110Z,1.25
2022-08-20T16:54:32.229Z,0.75
2022-08-20T16:57:06.585Z,1.30
2022-08-20T16:59:54.148Z,0.98
2022-08-20T17:02:25.426Z,1.48
2022-08-20T17:04:59.051Z,1.65
2022-08-20T17:07:50.678Z,0.88
2022-08-20T17:10:42.995Z,1.13
2022-08-20T17:13:18.277Z,1.48
2022-08-20T17:16:00.087Z,1.42
2022-08-20T17:18:32.485Z,1.33
2022-08-20T17:21:14.946Z,0.93
2022-08-20T17:23:55.985Z,1.20
2022-08-20T17:26:30.119Z,1.52
2022-08-20T17:29:03.138Z,1.10
2022-08-20T17:31:39.156Z,1.48
2022-08-20T17:34:20.279Z,1.48
2022-08-20T17:37:11.317Z,1.27
2022-08-20T17:39:50.851Z,1.00
2022-08-20T17:42:21.013Z,1.02
2022-08-20T17:44:55.219Z,1.08
2022-08-20T17:47:30.703Z,0.93
2022-08-20T17:50:04.753Z,1.67
2022-08-20T17:52:41.613Z,1.00
2022-08-20T17:55:10.106Z,1.25
2022-08-20T17:57:39.434Z,1.08
2022-08-20T18:00:15.504Z,1.52
2022-08-20T18:02:45.674Z,1.38
2022-08-20T18:05:19.297Z,0.98
2022-08-20T18:07:59.513Z,1.30
2022-08-20T18:10:28.392Z,1.00
2022-08-20T18:13:19.423Z,0.98
2022-08-20T18:15:57.747Z,1.08
2022-08-20T18:18:29.659Z,1.05
2022-08-20T18:21:10.264Z,1.00
2022-08-20T18:23:47.522Z,1.40
2022-08-20T18:26:29.686Z,1.00
2022-08-20T18:29:15.257Z,1.35
2022-08-20T18:31:54.607Z,1.05
2022-08-20T18:34:29.578Z,1.10
2022-08-20T18:37:20.420Z,1.10
2022-08-20T18:39:50.238Z,1.45
2022-08-20T18:42:38.122Z,1.30
2022-08-20T18:45:11.256Z,1.17
2022-08-20T18:47:47.016Z,1.10
2022-08-20T18:50:30.752Z,1.15
2022-08-20T18:53:14.802Z,1.05
2022-08-20T18:56:13.926Z,1.20
2022-08-20T18:59:02.434Z,1.63
2022-08-20T19:01:36.384Z,1.40
2022-08-20T19:04:23.653Z,1.08
2022-08-20T19:07:06.706Z,1.02
2022-08-20T19:10:07.154Z,1.13
2022-08-20T19:13:14.142Z,1.25
2022-08-20T19:16:01.779Z,1.30
2022-08-20T19:18:37.761Z,1.10
2022-08-20T19:21:16.182Z,1.20
2022-08-20T19:23:51.729Z,1.73
2022-08-20T19:26:29.240Z,1.30
2022-08-20T19:29:10.822Z,1.42
2022-08-20T19:34:22.610Z,0.88
2022-08-20T19:37:27.684Z,1.33
2022-08-20T19:39:53.073Z,1.17
2022-08-20T19:42:46.969Z,1.15
2022-08-20T19:45:38.987Z,1.10
2022-08-20T19:48:36.995Z,1.25
2022-08-20T19:51:22.941Z,1.50
2022-08-20T19:53:52.115Z,0.95
2022-08-20T19:56:41.817Z,1.20
2022-08-20T19:59:21.869Z,0.93
2022-08-20T20:02:03.129Z,1.42
2022-08-20T20:04:55.799Z,1.50
2022-08-20T20:08:07.076Z,1.10
2022-08-20T20:10:43.370Z,1.50
2022-08-20T20:13:24.890Z,1.00
2022-08-20T20:16:04.412Z,1.38
2022-08-20T20:18:43.782Z,1.25
2022-08-20T20:21:27.220Z,1.10
2022-08-20T20:24:03.845Z,1.33
2022-08-20T20:26:44.919Z,1.73
2022-08-20T20:29:27.140Z,1.30
2022-08-20T20:32:15.555Z,1.65
2022-08-20T20:34:55.406Z,1.15
2022-08-20T20:37:49.154Z,1.67
2022-08-20T20:40:30.990Z,1.10
2022-08-20T20:43:14.059Z,1.40
2022-08-20T20:46:09.578Z,1.65
2022-08-20T20:48:55.151Z,1.40
2022-08-20T20:51:33.836Z,1.35
2022-08-20T20:54:21.405Z,1.33
2022-08-20T20:57:06.937Z,1.13
2022-08-20T20:59:40.670Z,1.20
2022-08-20T21:02:16.611Z,1.10
2022-08-20T21:04:44.953Z,1.48
2022-08-20T21:07:15.317Z,1.83
2022-08-20T21:09:43.090Z,1.20
2022-08-20T21:12:12.545Z,1.50
2022-08-20T21:14:43.860Z,1.25
2022-08-20T21:17:21.951Z,1.60
2022-08-20T21:19:57.670Z,1.50
2022-08-20T21:22:26.114Z,1.33
2022-08-20T21:24:53.806Z,1.40
2022-08-20T21:27:24.620Z,1.60
2022-08-20T21:29:53.268Z,1.40
2022-08-20T21:32:21.576Z,1.30
2022-08-20T21:34:50.244Z,1.67
2022-08-20T21:37:22.318Z,1.27
2022-08-20T21:39:50.113Z,1.30
2022-08-20T21:42:28.455Z,1.25
2022-08-20T21:45:00.485Z,1.40
2022-08-20T21:47:28.864Z,1.23
2022-08-20T21:49:57.746Z,1.50
2022-08-20T21:52:31.244Z,1.40
2022-08-20T21:55:04.027Z,1.52
2022-08-20T21:57:33.945Z,1.52
2022-08-20T22:00:18.497Z,1.65
2022-08-20T22:02:49.845Z,1.70
2022-08-20T22:05:17.715Z,1.40
2022-08-20T22:07:48.975Z,1.27
2022-08-20T22:10:16.287Z,1.23
2022-08-20T22:12:51.592Z,1.38
2022-08-20T22:15:19.056Z,1.48
2022-08-20T22:17:56.422Z,1.10
2022-08-20T22:20:29.281Z,1.42
2022-08-20T22:23:10.120Z,1.23
2022-08-20T22:25:43.690Z,2.17
2022-08-20T22:28:18.120Z,1.13
2022-08-20T22:30:45.556Z,1.52
2022-08-20T22:33:23.083Z,1.38
2022-08-20T22:35:56.159Z,1.25
2022-08-20T22:38:34.351Z,1.45
2022-08-20T22:41:09.560Z,1.73
2022-08-20T22:43:55.793Z,1.45
2022-08-20T22:46:32.274Z,1.45
2022-08-20T22:49:00.975Z,1.40
2022-08-20T22:51:38.726Z,1.20
2022-08-20T22:54:11.056Z,1.23
2022-08-20T22:56:48.629Z,1.40
2022-08-20T22:59:22.964Z,1.52
2022-08-20T23:01:50.992Z,1.67
2022-08-20T23:04:26.109Z,1.20
2022-08-20T23:06:59.110Z,1.88
2022-08-20T23:09:27.095Z,1.60
2022-08-20T23:11:54.455Z,1.40
2022-08-20T23:14:27.162Z,1.48
2022-08-20T23:17:18.073Z,1.60
2022-08-20T23:19:49.856Z,1.25
2022-08-20T23:22:20.515Z,1.30
2022-08-20T23:24:47.906Z,1.58
2022-08-20T23:27:24.109Z,1.60
2022-08-20T23:29:51.514Z,1.50
2022-08-20T23:32:22.601Z,1.67
2022-08-20T23:34:53.495Z,1.52
2022-08-20T23:37:20.798Z,1.77
2022-08-20T23:39:50.079Z,1.70
2022-08-20T23:42:17.932Z,1.73
2022-08-20T23:44:50.345Z,1.75
2022-08-20T23:47:21.807Z,1.40
2022-08-20T23:52:24.079Z,1.60
2022-08-20T23:54:55.051Z,1.70
2022-08-20T23:57:26.415Z,1.70
2022-08-20T23:59:57.355Z,1.65
